Galesburg, North Dakota
Current Conditions -  °F | °C
As of 7:15 AM on Sunday 23 Nov 2014 (Local Time) from KBAC Reporting Station
Overcast Overcast  
Wind Chill: 30°   Ceiling: 7000
Heat Index: 37°   Visibility: 10mi
Dew Point: 37°   Wind: 10mph
Humidity: 100%   Direction: 280°W
Pressure: 29.41"   Gusts: NA
Location:  47.27°N, 97.41°W
Report Text: KBAC 231315Z AUTO 28009KT 10SM FEW032 FEW055 OVC070 03/03 A2941 RMK AO2
Loading
Personal Weather Stations






























Interactive Weather Map New forecast layout! Learn more

10-Day Weather Forecast

Advertisements
Track Severe Weather on mobile